sensor_id;sensor_type;location;lat;lon;timestamp;P1;durP1;ratioP1;P2;durP2;ratioP2
32365;SDS011;18837;46.832;16.838;2023-05-07T00:00:46;3.73;;;3.33;;
32365;SDS011;18837;46.832;16.838;2023-05-07T00:03:11;3.60;;;3.30;;
32365;SDS011;18837;46.832;16.838;2023-05-07T00:05:39;3.77;;;3.47;;
32365;SDS011;18837;46.832;16.838;2023-05-07T00:08:07;4.10;;;3.33;;
32365;SDS011;18837;46.832;16.838;2023-05-07T00:10:36;4.03;;;3.63;;
32365;SDS011;18837;46.832;16.838;2023-05-07T00:13:03;3.77;;;3.47;;
32365;SDS011;18837;46.832;16.838;2023-05-07T00:15:28;3.73;;;3.37;;
32365;SDS011;18837;46.832;16.838;2023-05-07T00:17:54;3.63;;;3.33;;
32365;SDS011;18837;46.832;16.838;2023-05-07T00:20:20;4.40;;;4.00;;
32365;SDS011;18837;46.832;16.838;2023-05-07T00:22:46;4.33;;;3.43;;
32365;SDS011;18837;46.832;16.838;2023-05-07T00:25:12;3.67;;;3.37;;
32365;SDS011;18837;46.832;16.838;2023-05-07T00:27:43;3.73;;;3.40;;
32365;SDS011;18837;46.832;16.838;2023-05-07T00:30:08;3.70;;;3.30;;
32365;SDS011;18837;46.832;16.838;2023-05-07T00:32:34;3.50;;;3.20;;
32365;SDS011;18837;46.832;16.838;2023-05-07T00:35:01;3.93;;;3.33;;
32365;SDS011;18837;46.832;16.838;2023-05-07T00:37:27;3.77;;;3.13;;
32365;SDS011;18837;46.832;16.838;2023-05-07T00:39:53;4.00;;;3.50;;
32365;SDS011;18837;46.832;16.838;2023-05-07T00:42:24;3.53;;;3.17;;
32365;SDS011;18837;46.832;16.838;2023-05-07T00:44:49;3.77;;;3.47;;
32365;SDS011;18837;46.832;16.838;2023-05-07T00:47:15;3.57;;;3.27;;
32365;SDS011;18837;46.832;16.838;2023-05-07T00:49:42;3.57;;;3.20;;
32365;SDS011;18837;46.832;16.838;2023-05-07T00:52:09;3.50;;;3.20;;
32365;SDS011;18837;46.832;16.838;2023-05-07T00:54:38;3.50;;;3.20;;
32365;SDS011;18837;46.832;16.838;2023-05-07T00:57:05;4.57;;;3.30;;
32365;SDS011;18837;46.832;16.838;2023-05-07T00:59:31;3.70;;;3.37;;
32365;SDS011;18837;46.832;16.838;2023-05-07T01:01:58;3.37;;;3.17;;
32365;SDS011;18837;46.832;16.838;2023-05-07T01:04:24;3.67;;;3.37;;
32365;SDS011;18837;46.832;16.838;2023-05-07T01:06:50;3.43;;;3.13;;
32365;SDS011;18837;46.832;16.838;2023-05-07T01:09:17;3.60;;;3.30;;
32365;SDS011;18837;46.832;16.838;2023-05-07T01:11:45;3.60;;;3.30;;
32365;SDS011;18837;46.832;16.838;2023-05-07T01:14:11;3.20;;;2.90;;
32365;SDS011;18837;46.832;16.838;2023-05-07T01:16:43;3.37;;;3.17;;
32365;SDS011;18837;46.832;16.838;2023-05-07T01:19:11;3.43;;;3.13;;
32365;SDS011;18837;46.832;16.838;2023-05-07T01:22:01;3.67;;;3.20;;
32365;SDS011;18837;46.832;16.838;2023-05-07T01:24:29;3.17;;;2.87;;
32365;SDS011;18837;46.832;16.838;2023-05-07T01:26:56;3.10;;;2.90;;
32365;SDS011;18837;46.832;16.838;2023-05-07T01:29:22;3.70;;;3.40;;
32365;SDS011;18837;46.832;16.838;2023-05-07T01:31:48;3.17;;;2.97;;
32365;SDS011;18837;46.832;16.838;2023-05-07T01:34:16;3.60;;;2.80;;
32365;SDS011;18837;46.832;16.838;2023-05-07T01:36:53;6.30;;;3.03;;
32365;SDS011;18837;46.832;16.838;2023-05-07T01:39:22;3.30;;;2.80;;
32365;SDS011;18837;46.832;16.838;2023-05-07T01:41:49;3.30;;;3.00;;
32365;SDS011;18837;46.832;16.838;2023-05-07T01:44:15;3.87;;;3.00;;
32365;SDS011;18837;46.832;16.838;2023-05-07T01:46:43;3.57;;;3.27;;
32365;SDS011;18837;46.832;16.838;2023-05-07T01:49:09;3.33;;;3.10;;
32365;SDS011;18837;46.832;16.838;2023-05-07T01:51:41;3.90;;;3.13;;
32365;SDS011;18837;46.832;16.838;2023-05-07T01:54:26;4.07;;;3.67;;
32365;SDS011;18837;46.832;16.838;2023-05-07T01:57:05;3.60;;;3.30;;
32365;SDS011;18837;46.832;16.838;2023-05-07T01:59:31;4.40;;;3.20;;
32365;SDS011;18837;46.832;16.838;2023-05-07T02:01:57;3.53;;;3.23;;
32365;SDS011;18837;46.832;16.838;2023-05-07T02:04:22;4.87;;;3.17;;
32365;SDS011;18837;46.832;16.838;2023-05-07T02:06:49;3.20;;;2.93;;
32365;SDS011;18837;46.832;16.838;2023-05-07T02:09:15;3.77;;;3.40;;
32365;SDS011;18837;46.832;16.838;2023-05-07T02:11:46;4.90;;;3.37;;
32365;SDS011;18837;46.832;16.838;2023-05-07T02:14:12;3.37;;;3.07;;
32365;SDS011;18837;46.832;16.838;2023-05-07T02:16:37;4.17;;;3.50;;
32365;SDS011;18837;46.832;16.838;2023-05-07T02:19:03;3.40;;;3.10;;
32365;SDS011;18837;46.832;16.838;2023-05-07T02:21:28;3.67;;;3.30;;
32365;SDS011;18837;46.832;16.838;2023-05-07T02:23:54;3.60;;;3.30;;
32365;SDS011;18837;46.832;16.838;2023-05-07T02:29:12;4.13;;;3.23;;
32365;SDS011;18837;46.832;16.838;2023-05-07T02:31:43;3.33;;;3.03;;
32365;SDS011;18837;46.832;16.838;2023-05-07T02:34:08;3.50;;;3.20;;
32365;SDS011;18837;46.832;16.838;2023-05-07T02:36:34;3.30;;;3.10;;
32365;SDS011;18837;46.832;16.838;2023-05-07T02:39:00;3.50;;;3.20;;
32365;SDS011;18837;46.832;16.838;2023-05-07T02:41:26;3.60;;;3.27;;
32365;SDS011;18837;46.832;16.838;2023-05-07T02:43:53;3.47;;;3.17;;
32365;SDS011;18837;46.832;16.838;2023-05-07T02:46:24;4.30;;;3.23;;
32365;SDS011;18837;46.832;16.838;2023-05-07T02:48:50;3.67;;;3.10;;
32365;SDS011;18837;46.832;16.838;2023-05-07T02:51:19;3.20;;;3.00;;
32365;SDS011;18837;46.832;16.838;2023-05-07T02:53:46;3.33;;;3.10;;
32365;SDS011;18837;46.832;16.838;2023-05-07T02:56:11;3.63;;;3.10;;
32365;SDS011;18837;46.832;16.838;2023-05-07T02:58:37;4.40;;;2.83;;
32365;SDS011;18837;46.832;16.838;2023-05-07T03:01:25;3.30;;;3.00;;
32365;SDS011;18837;46.832;16.838;2023-05-07T03:03:54;2.73;;;2.50;;
32365;SDS011;18837;46.832;16.838;2023-05-07T03:06:28;3.67;;;3.37;;
32365;SDS011;18837;46.832;16.838;2023-05-07T03:08:53;3.43;;;3.13;;
32365;SDS011;18837;46.832;16.838;2023-05-07T03:11:19;3.27;;;3.03;;
32365;SDS011;18837;46.832;16.838;2023-05-07T03:13:45;4.17;;;3.30;;
32365;SDS011;18837;46.832;16.838;2023-05-07T03:16:11;3.63;;;3.33;;
32365;SDS011;18837;46.832;16.838;2023-05-07T03:18:37;3.33;;;3.03;;
32365;SDS011;18837;46.832;16.838;2023-05-07T03:21:08;3.47;;;3.17;;
32365;SDS011;18837;46.832;16.838;2023-05-07T03:23:34;3.47;;;3.17;;
32365;SDS011;18837;46.832;16.838;2023-05-07T03:26:00;3.40;;;3.10;;
32365;SDS011;18837;46.832;16.838;2023-05-07T03:28:25;3.40;;;3.10;;
32365;SDS011;18837;46.832;16.838;2023-05-07T03:30:51;3.10;;;2.90;;
32365;SDS011;18837;46.832;16.838;2023-05-07T03:33:17;3.13;;;2.83;;
32365;SDS011;18837;46.832;16.838;2023-05-07T03:41:17;3.20;;;2.90;;
32365;SDS011;18837;46.832;16.838;2023-05-07T03:43:42;3.30;;;3.00;;
32365;SDS011;18837;46.832;16.838;2023-05-07T03:46:08;3.30;;;3.00;;
32365;SDS011;18837;46.832;16.838;2023-05-07T03:48:34;3.03;;;2.83;;
32365;SDS011;18837;46.832;16.838;2023-05-07T03:51:00;3.47;;;3.17;;
32365;SDS011;18837;46.832;16.838;2023-05-07T03:53:25;3.10;;;2.90;;
32365;SDS011;18837;46.832;16.838;2023-05-07T03:55:56;2.87;;;2.67;;
32365;SDS011;18837;46.832;16.838;2023-05-07T03:58:22;3.17;;;2.87;;
32365;SDS011;18837;46.832;16.838;2023-05-07T04:00:48;3.70;;;2.73;;
32365;SDS011;18837;46.832;16.838;2023-05-07T04:03:13;2.83;;;2.63;;
32365;SDS011;18837;46.832;16.838;2023-05-07T04:05:39;2.80;;;2.60;;
32365;SDS011;18837;46.832;16.838;2023-05-07T04:08:05;2.83;;;2.60;;
32365;SDS011;18837;46.832;16.838;2023-05-07T04:10:43;3.40;;;3.10;;
32365;SDS011;18837;46.832;16.838;2023-05-07T04:13:21;3.13;;;2.83;;
32365;SDS011;18837;46.832;16.838;2023-05-07T04:15:46;2.80;;;2.60;;
32365;SDS011;18837;46.832;16.838;2023-05-07T04:18:14;3.80;;;3.03;;
32365;SDS011;18837;46.832;16.838;2023-05-07T04:20:40;3.00;;;2.80;;
32365;SDS011;18837;46.832;16.838;2023-05-07T04:23:06;3.27;;;2.90;;
32365;SDS011;18837;46.832;16.838;2023-05-07T04:25:32;4.67;;;2.87;;
32365;SDS011;18837;46.832;16.838;2023-05-07T04:27:58;3.50;;;3.20;;
32365;SDS011;18837;46.832;16.838;2023-05-07T04:30:26;3.87;;;3.07;;
32365;SDS011;18837;46.832;16.838;2023-05-07T04:32:52;3.33;;;3.03;;
32365;SDS011;18837;46.832;16.838;2023-05-07T04:35:18;3.60;;;3.20;;
32365;SDS011;18837;46.832;16.838;2023-05-07T04:37:44;3.30;;;3.00;;
32365;SDS011;18837;46.832;16.838;2023-05-07T04:40:09;2.80;;;2.60;;
32365;SDS011;18837;46.832;16.838;2023-05-07T04:42:35;3.50;;;2.77;;
32365;SDS011;18837;46.832;16.838;2023-05-07T04:45:04;3.17;;;2.97;;
32365;SDS011;18837;46.832;16.838;2023-05-07T04:47:31;2.77;;;2.57;;
32365;SDS011;18837;46.832;16.838;2023-05-07T04:50:03;4.27;;;2.83;;
32365;SDS011;18837;46.832;16.838;2023-05-07T04:52:29;3.73;;;2.90;;
32365;SDS011;18837;46.832;16.838;2023-05-07T04:54:56;2.97;;;2.77;;
32365;SDS011;18837;46.832;16.838;2023-05-07T04:57:24;3.37;;;3.07;;
32365;SDS011;18837;46.832;16.838;2023-05-07T04:59:49;2.90;;;2.70;;
32365;SDS011;18837;46.832;16.838;2023-05-07T05:02:15;2.90;;;2.70;;
32365;SDS011;18837;46.832;16.838;2023-05-07T05:04:41;2.80;;;2.60;;
32365;SDS011;18837;46.832;16.838;2023-05-07T05:07:07;3.10;;;2.80;;
32365;SDS011;18837;46.832;16.838;2023-05-07T05:09:33;2.77;;;2.57;;
32365;SDS011;18837;46.832;16.838;2023-05-07T05:11:59;2.97;;;2.77;;
32365;SDS011;18837;46.832;16.838;2023-05-07T05:14:24;3.20;;;2.90;;
32365;SDS011;18837;46.832;16.838;2023-05-07T05:16:50;4.47;;;2.90;;
32365;SDS011;18837;46.832;16.838;2023-05-07T05:19:19;2.80;;;2.60;;
32365;SDS011;18837;46.832;16.838;2023-05-07T05:21:45;2.93;;;2.73;;
32365;SDS011;18837;46.832;16.838;2023-05-07T05:24:11;4.30;;;2.70;;
32365;SDS011;18837;46.832;16.838;2023-05-07T05:26:36;2.77;;;2.57;;
32365;SDS011;18837;46.832;16.838;2023-05-07T05:29:02;2.97;;;2.70;;
32365;SDS011;18837;46.832;16.838;2023-05-07T05:31:28;2.87;;;2.67;;
32365;SDS011;18837;46.832;16.838;2023-05-07T05:33:54;2.70;;;2.50;;
32365;SDS011;18837;46.832;16.838;2023-05-07T05:36:32;2.87;;;2.40;;
32365;SDS011;18837;46.832;16.838;2023-05-07T05:39:03;3.20;;;2.90;;
32365;SDS011;18837;46.832;16.838;2023-05-07T05:41:29;3.10;;;2.73;;
32365;SDS011;18837;46.832;16.838;2023-05-07T05:43:55;3.00;;;2.70;;
32365;SDS011;18837;46.832;16.838;2023-05-07T05:46:21;2.70;;;2.50;;
32365;SDS011;18837;46.832;16.838;2023-05-07T05:48:47;2.57;;;2.37;;
32365;SDS011;18837;46.832;16.838;2023-05-07T05:51:13;2.87;;;2.67;;
32365;SDS011;18837;46.832;16.838;2023-05-07T05:53:38;2.47;;;2.27;;
32365;SDS011;18837;46.832;16.838;2023-05-07T05:56:04;3.50;;;2.80;;
32365;SDS011;18837;46.832;16.838;2023-05-07T05:58:30;2.80;;;2.60;;
32365;SDS011;18837;46.832;16.838;2023-05-07T06:00:56;2.60;;;2.40;;
32365;SDS011;18837;46.832;16.838;2023-05-07T06:03:23;2.77;;;2.57;;
32365;SDS011;18837;46.832;16.838;2023-05-07T06:05:49;2.80;;;2.57;;
32365;SDS011;18837;46.832;16.838;2023-05-07T06:08:15;2.40;;;2.20;;
32365;SDS011;18837;46.832;16.838;2023-05-07T06:13:26;2.93;;;2.73;;
32365;SDS011;18837;46.832;16.838;2023-05-07T06:15:51;2.77;;;2.57;;
32365;SDS011;18837;46.832;16.838;2023-05-07T06:18:17;2.50;;;2.30;;
32365;SDS011;18837;46.832;16.838;2023-05-07T06:20:43;3.23;;;2.93;;
32365;SDS011;18837;46.832;16.838;2023-05-07T06:23:08;2.83;;;2.40;;
32365;SDS011;18837;46.832;16.838;2023-05-07T06:28:43;2.53;;;2.33;;
32365;SDS011;18837;46.832;16.838;2023-05-07T06:31:13;3.30;;;2.43;;
32365;SDS011;18837;46.832;16.838;2023-05-07T06:33:45;2.70;;;2.50;;
32365;SDS011;18837;46.832;16.838;2023-05-07T06:36:11;2.70;;;2.50;;
32365;SDS011;18837;46.832;16.838;2023-05-07T06:38:38;2.87;;;2.67;;
32365;SDS011;18837;46.832;16.838;2023-05-07T06:41:05;3.23;;;2.40;;
32365;SDS011;18837;46.832;16.838;2023-05-07T06:46:18;2.87;;;2.60;;
32365;SDS011;18837;46.832;16.838;2023-05-07T06:48:44;2.93;;;2.73;;
32365;SDS011;18837;46.832;16.838;2023-05-07T06:51:09;2.67;;;2.47;;
32365;SDS011;18837;46.832;16.838;2023-05-07T06:53:35;3.20;;;2.90;;
32365;SDS011;18837;46.832;16.838;2023-05-07T06:56:03;3.03;;;2.73;;
32365;SDS011;18837;46.832;16.838;2023-05-07T06:58:48;3.10;;;2.80;;
32365;SDS011;18837;46.832;16.838;2023-05-07T07:04:05;3.30;;;3.00;;
32365;SDS011;18837;46.832;16.838;2023-05-07T07:06:31;3.60;;;3.30;;
32365;SDS011;18837;46.832;16.838;2023-05-07T07:08:57;3.33;;;3.03;;
32365;SDS011;18837;46.832;16.838;2023-05-07T07:11:23;3.73;;;3.43;;
32365;SDS011;18837;46.832;16.838;2023-05-07T07:13:49;3.50;;;3.20;;
32365;SDS011;18837;46.832;16.838;2023-05-07T07:16:15;3.70;;;3.40;;
32365;SDS011;18837;46.832;16.838;2023-05-07T07:18:54;3.57;;;3.27;;
32365;SDS011;18837;46.832;16.838;2023-05-07T07:21:19;3.40;;;3.10;;
32365;SDS011;18837;46.832;16.838;2023-05-07T07:23:45;3.73;;;3.37;;
32365;SDS011;18837;46.832;16.838;2023-05-07T07:26:11;4.10;;;3.70;;
32365;SDS011;18837;46.832;16.838;2023-05-07T07:28:41;3.40;;;3.10;;
32365;SDS011;18837;46.832;16.838;2023-05-07T07:31:08;5.13;;;3.00;;
32365;SDS011;18837;46.832;16.838;2023-05-07T07:36:22;3.93;;;3.50;;
32365;SDS011;18837;46.832;16.838;2023-05-07T07:38:54;3.77;;;3.47;;
32365;SDS011;18837;46.832;16.838;2023-05-07T07:41:20;3.40;;;3.10;;
32365;SDS011;18837;46.832;16.838;2023-05-07T07:43:46;3.50;;;3.20;;
32365;SDS011;18837;46.832;16.838;2023-05-07T07:46:12;3.37;;;2.80;;
32365;SDS011;18837;46.832;16.838;2023-05-07T07:48:38;3.33;;;3.07;;
32365;SDS011;18837;46.832;16.838;2023-05-07T07:51:03;3.50;;;3.07;;
32365;SDS011;18837;46.832;16.838;2023-05-07T07:53:29;3.30;;;3.10;;
32365;SDS011;18837;46.832;16.838;2023-05-07T07:55:55;4.20;;;3.43;;
32365;SDS011;18837;46.832;16.838;2023-05-07T07:58:21;3.70;;;3.40;;
32365;SDS011;18837;46.832;16.838;2023-05-07T08:00:47;4.13;;;3.73;;
32365;SDS011;18837;46.832;16.838;2023-05-07T08:03:13;3.93;;;3.33;;
32365;SDS011;18837;46.832;16.838;2023-05-07T08:05:41;5.93;;;4.07;;
32365;SDS011;18837;46.832;16.838;2023-05-07T08:08:07;4.67;;;4.17;;
32365;SDS011;18837;46.832;16.838;2023-05-07T08:10:33;4.23;;;3.87;;
32365;SDS011;18837;46.832;16.838;2023-05-07T08:13:03;4.80;;;3.50;;
32365;SDS011;18837;46.832;16.838;2023-05-07T08:15:29;4.50;;;4.10;;
32365;SDS011;18837;46.832;16.838;2023-05-07T08:17:55;4.47;;;4.07;;
32365;SDS011;18837;46.832;16.838;2023-05-07T08:20:22;4.43;;;3.97;;
32365;SDS011;18837;46.832;16.838;2023-05-07T08:22:57;4.00;;;3.70;;
32365;SDS011;18837;46.832;16.838;2023-05-07T08:25:23;8.87;;;3.47;;
32365;SDS011;18837;46.832;16.838;2023-05-07T08:27:49;3.70;;;3.40;;
32365;SDS011;18837;46.832;16.838;2023-05-07T08:30:14;3.50;;;3.13;;
32365;SDS011;18837;46.832;16.838;2023-05-07T08:32:40;3.20;;;2.97;;
32365;SDS011;18837;46.832;16.838;2023-05-07T08:35:06;3.20;;;3.00;;
32365;SDS011;18837;46.832;16.838;2023-05-07T08:37:32;3.33;;;3.07;;
32365;SDS011;18837;46.832;16.838;2023-05-07T08:43:20;3.40;;;3.10;;
32365;SDS011;18837;46.832;16.838;2023-05-07T08:45:52;3.97;;;3.00;;
32365;SDS011;18837;46.832;16.838;2023-05-07T08:48:20;5.00;;;3.00;;
32365;SDS011;18837;46.832;16.838;2023-05-07T08:50:50;4.27;;;3.00;;
32365;SDS011;18837;46.832;16.838;2023-05-07T08:53:16;3.20;;;2.90;;
32365;SDS011;18837;46.832;16.838;2023-05-07T08:55:42;3.27;;;2.70;;
32365;SDS011;18837;46.832;16.838;2023-05-07T08:58:14;2.97;;;2.70;;
32365;SDS011;18837;46.832;16.838;2023-05-07T09:00:40;3.30;;;3.00;;
32365;SDS011;18837;46.832;16.838;2023-05-07T09:03:07;4.45;;;3.63;;
32365;SDS011;18837;46.832;16.838;2023-05-07T09:05:32;29.90;;;24.47;;
32365;SDS011;18837;46.832;16.838;2023-05-07T09:07:59;21.90;;;19.60;;
32365;SDS011;18837;46.832;16.838;2023-05-07T09:10:26;14.20;;;11.27;;
32365;SDS011;18837;46.832;16.838;2023-05-07T09:12:52;16.27;;;9.90;;
32365;SDS011;18837;46.832;16.838;2023-05-07T09:15:37;14.97;;;9.40;;
32365;SDS011;18837;46.832;16.838;2023-05-07T09:18:14;9.47;;;7.97;;
32365;SDS011;18837;46.832;16.838;2023-05-07T09:20:40;11.73;;;8.60;;
32365;SDS011;18837;46.832;16.838;2023-05-07T09:23:07;10.40;;;7.27;;
32365;SDS011;18837;46.832;16.838;2023-05-07T09:25:34;9.77;;;7.90;;
32365;SDS011;18837;46.832;16.838;2023-05-07T09:28:01;7.87;;;6.90;;
32365;SDS011;18837;46.832;16.838;2023-05-07T09:30:29;10.40;;;7.63;;
32365;SDS011;18837;46.832;16.838;2023-05-07T09:33:04;7.33;;;6.63;;
32365;SDS011;18837;46.832;16.838;2023-05-07T09:35:30;8.70;;;6.80;;
32365;SDS011;18837;46.832;16.838;2023-05-07T09:37:57;7.03;;;6.33;;
32365;SDS011;18837;46.832;16.838;2023-05-07T09:40:25;9.93;;;6.90;;
32365;SDS011;18837;46.832;16.838;2023-05-07T09:42:52;6.30;;;5.57;;
32365;SDS011;18837;46.832;16.838;2023-05-07T09:45:28;6.90;;;6.20;;
32365;SDS011;18837;46.832;16.838;2023-05-07T09:48:02;7.53;;;5.30;;
32365;SDS011;18837;46.832;16.838;2023-05-07T09:50:49;5.70;;;5.20;;
32365;SDS011;18837;46.832;16.838;2023-05-07T09:53:19;5.80;;;5.30;;
32365;SDS011;18837;46.832;16.838;2023-05-07T09:55:46;5.67;;;5.17;;
32365;SDS011;18837;46.832;16.838;2023-05-07T09:58:12;6.27;;;5.67;;
32365;SDS011;18837;46.832;16.838;2023-05-07T10:00:39;5.60;;;5.10;;
32365;SDS011;18837;46.832;16.838;2023-05-07T10:03:07;6.87;;;4.90;;
32365;SDS011;18837;46.832;16.838;2023-05-07T10:05:34;5.93;;;5.33;;
32365;SDS011;18837;46.832;16.838;2023-05-07T10:08:10;6.80;;;5.03;;
32365;SDS011;18837;46.832;16.838;2023-05-07T10:10:36;5.07;;;4.57;;
32365;SDS011;18837;46.832;16.838;2023-05-07T10:13:02;5.00;;;4.60;;
32365;SDS011;18837;46.832;16.838;2023-05-07T10:15:35;4.90;;;4.40;;
32365;SDS011;18837;46.832;16.838;2023-05-07T10:18:01;5.53;;;4.47;;
32365;SDS011;18837;46.832;16.838;2023-05-07T10:20:28;5.47;;;4.50;;
32365;SDS011;18837;46.832;16.838;2023-05-07T10:28:59;4.83;;;4.40;;
32365;SDS011;18837;46.832;16.838;2023-05-07T10:33:54;4.73;;;4.20;;
32365;SDS011;18837;46.832;16.838;2023-05-07T10:36:23;4.73;;;3.83;;
32365;SDS011;18837;46.832;16.838;2023-05-07T10:38:50;4.60;;;4.20;;
32365;SDS011;18837;46.832;16.838;2023-05-07T10:41:31;4.50;;;4.10;;
32365;SDS011;18837;46.832;16.838;2023-05-07T10:43:57;4.10;;;3.57;;
32365;SDS011;18837;46.832;16.838;2023-05-07T10:46:26;4.40;;;4.00;;
32365;SDS011;18837;46.832;16.838;2023-05-07T10:51:28;5.03;;;3.80;;
32365;SDS011;18837;46.832;16.838;2023-05-07T11:03:10;4.93;;;4.50;;
32365;SDS011;18837;46.832;16.838;2023-05-07T11:05:36;4.70;;;3.43;;
32365;SDS011;18837;46.832;16.838;2023-05-07T11:08:03;4.10;;;3.70;;
32365;SDS011;18837;46.832;16.838;2023-05-07T11:13:16;4.03;;;3.63;;
32365;SDS011;18837;46.832;16.838;2023-05-07T11:15:43;3.90;;;3.50;;
32365;SDS011;18837;46.832;16.838;2023-05-07T11:18:17;4.17;;;3.23;;
32365;SDS011;18837;46.832;16.838;2023-05-07T11:20:44;3.40;;;3.10;;
32365;SDS011;18837;46.832;16.838;2023-05-07T11:25:59;3.70;;;3.07;;
32365;SDS011;18837;46.832;16.838;2023-05-07T11:28:25;3.27;;;2.97;;
32365;SDS011;18837;46.832;16.838;2023-05-07T11:30:53;3.40;;;3.10;;
32365;SDS011;18837;46.832;16.838;2023-05-07T11:36:44;4.33;;;2.77;;
32365;SDS011;18837;46.832;16.838;2023-05-07T11:39:23;5.47;;;2.97;;
32365;SDS011;18837;46.832;16.838;2023-05-07T11:41:50;10.47;;;3.27;;
32365;SDS011;18837;46.832;16.838;2023-05-07T11:44:15;4.77;;;2.80;;
32365;SDS011;18837;46.832;16.838;2023-05-07T11:46:45;4.23;;;3.23;;
32365;SDS011;18837;46.832;16.838;2023-05-07T11:49:11;5.80;;;3.00;;
32365;SDS011;18837;46.832;16.838;2023-05-07T11:51:49;3.83;;;3.03;;
32365;SDS011;18837;46.832;16.838;2023-05-07T11:54:15;3.63;;;3.27;;
32365;SDS011;18837;46.832;16.838;2023-05-07T11:56:41;4.53;;;3.17;;
32365;SDS011;18837;46.832;16.838;2023-05-07T11:59:08;3.60;;;2.60;;
32365;SDS011;18837;46.832;16.838;2023-05-07T12:01:35;3.10;;;2.80;;
32365;SDS011;18837;46.832;16.838;2023-05-07T12:04:02;3.00;;;2.70;;
32365;SDS011;18837;46.832;16.838;2023-05-07T12:06:44;3.67;;;3.10;;
32365;SDS011;18837;46.832;16.838;2023-05-07T12:12:37;4.40;;;2.73;;
32365;SDS011;18837;46.832;16.838;2023-05-07T12:15:04;3.43;;;2.77;;
32365;SDS011;18837;46.832;16.838;2023-05-07T12:17:30;3.33;;;2.90;;
32365;SDS011;18837;46.832;16.838;2023-05-07T12:19:56;3.40;;;2.47;;
32365;SDS011;18837;46.832;16.838;2023-05-07T12:22:22;2.70;;;2.50;;
32365;SDS011;18837;46.832;16.838;2023-05-07T12:24:48;3.40;;;2.30;;
32365;SDS011;18837;46.832;16.838;2023-05-07T12:27:43;3.53;;;2.40;;
32365;SDS011;18837;46.832;16.838;2023-05-07T12:30:09;2.80;;;2.60;;
32365;SDS011;18837;46.832;16.838;2023-05-07T12:32:36;2.70;;;2.47;;
32365;SDS011;18837;46.832;16.838;2023-05-07T12:35:02;3.00;;;2.80;;
32365;SDS011;18837;46.832;16.838;2023-05-07T12:37:28;2.60;;;2.37;;
32365;SDS011;18837;46.832;16.838;2023-05-07T12:40:10;2.97;;;2.43;;
32365;SDS011;18837;46.832;16.838;2023-05-07T12:46:08;2.50;;;2.30;;
32365;SDS011;18837;46.832;16.838;2023-05-07T12:48:38;2.77;;;2.57;;
32365;SDS011;18837;46.832;16.838;2023-05-07T12:51:08;2.70;;;2.50;;
32365;SDS011;18837;46.832;16.838;2023-05-07T12:53:39;3.27;;;2.60;;
32365;SDS011;18837;46.832;16.838;2023-05-07T12:56:07;2.80;;;2.60;;
32365;SDS011;18837;46.832;16.838;2023-05-07T12:58:33;2.80;;;2.53;;
32365;SDS011;18837;46.832;16.838;2023-05-07T13:01:09;4.40;;;2.57;;
32365;SDS011;18837;46.832;16.838;2023-05-07T13:03:40;2.53;;;2.33;;
32365;SDS011;18837;46.832;16.838;2023-05-07T13:06:09;2.27;;;2.10;;
32365;SDS011;18837;46.832;16.838;2023-05-07T13:08:37;2.83;;;2.63;;
32365;SDS011;18837;46.832;16.838;2023-05-07T13:11:06;2.97;;;2.67;;
32365;SDS011;18837;46.832;16.838;2023-05-07T14:32:34;3.50;;;3.20;;
32365;SDS011;18837;46.832;16.838;2023-05-07T14:35:00;3.93;;;3.07;;
32365;SDS011;18837;46.832;16.838;2023-05-07T14:37:25;3.83;;;3.53;;
32365;SDS011;18837;46.832;16.838;2023-05-07T14:39:52;3.80;;;3.50;;
32365;SDS011;18837;46.832;16.838;2023-05-07T14:42:17;4.03;;;3.73;;
32365;SDS011;18837;46.832;16.838;2023-05-07T14:44:49;3.90;;;3.50;;
32365;SDS011;18837;46.832;16.838;2023-05-07T14:47:15;3.63;;;3.33;;
32365;SDS011;18837;46.832;16.838;2023-05-07T14:49:41;4.17;;;3.87;;
32365;SDS011;18837;46.832;16.838;2023-05-07T14:52:07;4.03;;;3.73;;
32365;SDS011;18837;46.832;16.838;2023-05-07T14:54:37;4.10;;;3.80;;
32365;SDS011;18837;46.832;16.838;2023-05-07T14:57:04;4.10;;;3.70;;
32365;SDS011;18837;46.832;16.838;2023-05-07T15:05:36;4.37;;;3.70;;
32365;SDS011;18837;46.832;16.838;2023-05-07T15:08:02;4.70;;;4.30;;
32365;SDS011;18837;46.832;16.838;2023-05-07T15:10:28;4.27;;;3.90;;
32365;SDS011;18837;46.832;16.838;2023-05-07T15:12:54;4.77;;;4.37;;
32365;SDS011;18837;46.832;16.838;2023-05-07T15:15:20;3.93;;;3.63;;
32365;SDS011;18837;46.832;16.838;2023-05-07T15:20:39;5.90;;;4.20;;
32365;SDS011;18837;46.832;16.838;2023-05-07T15:23:06;5.03;;;4.63;;
32365;SDS011;18837;46.832;16.838;2023-05-07T15:25:39;5.10;;;4.70;;
32365;SDS011;18837;46.832;16.838;2023-05-07T15:28:05;4.73;;;4.10;;
32365;SDS011;18837;46.832;16.838;2023-05-07T15:30:31;4.40;;;4.03;;
32365;SDS011;18837;46.832;16.838;2023-05-07T15:32:57;4.93;;;4.43;;
32365;SDS011;18837;46.832;16.838;2023-05-07T15:38:28;4.60;;;4.20;;
32365;SDS011;18837;46.832;16.838;2023-05-07T15:40:57;4.63;;;4.23;;
32365;SDS011;18837;46.832;16.838;2023-05-07T15:43:22;4.90;;;4.50;;
32365;SDS011;18837;46.832;16.838;2023-05-07T15:45:49;4.80;;;4.40;;
32365;SDS011;18837;46.832;16.838;2023-05-07T15:48:15;5.00;;;4.50;;
32365;SDS011;18837;46.832;16.838;2023-05-07T15:50:41;4.47;;;4.07;;
32365;SDS011;18837;46.832;16.838;2023-05-07T15:53:07;5.50;;;5.00;;
32365;SDS011;18837;46.832;16.838;2023-05-07T15:55:34;4.70;;;4.30;;
32365;SDS011;18837;46.832;16.838;2023-05-07T15:58:00;4.50;;;4.10;;
32365;SDS011;18837;46.832;16.838;2023-05-07T16:00:27;4.50;;;4.10;;
32365;SDS011;18837;46.832;16.838;2023-05-07T16:02:53;4.20;;;3.90;;
32365;SDS011;18837;46.832;16.838;2023-05-07T16:05:18;4.50;;;4.10;;
32365;SDS011;18837;46.832;16.838;2023-05-07T16:10:32;4.77;;;4.43;;
32365;SDS011;18837;46.832;16.838;2023-05-07T16:12:58;4.47;;;4.07;;
32365;SDS011;18837;46.832;16.838;2023-05-07T16:15:24;5.13;;;4.73;;
32365;SDS011;18837;46.832;16.838;2023-05-07T16:17:49;4.37;;;4.07;;
32365;SDS011;18837;46.832;16.838;2023-05-07T16:20:16;4.60;;;4.20;;
32365;SDS011;18837;46.832;16.838;2023-05-07T16:22:54;5.40;;;4.90;;
32365;SDS011;18837;46.832;16.838;2023-05-07T16:31:17;4.30;;;4.00;;
32365;SDS011;18837;46.832;16.838;2023-05-07T16:33:43;4.90;;;4.50;;
32365;SDS011;18837;46.832;16.838;2023-05-07T16:36:11;4.97;;;4.57;;
32365;SDS011;18837;46.832;16.838;2023-05-07T16:38:37;4.63;;;4.10;;
32365;SDS011;18837;46.832;16.838;2023-05-07T16:41:03;4.50;;;4.10;;
32365;SDS011;18837;46.832;16.838;2023-05-07T16:43:32;4.83;;;4.43;;
32365;SDS011;18837;46.832;16.838;2023-05-07T16:45:57;4.60;;;4.20;;
32365;SDS011;18837;46.832;16.838;2023-05-07T16:48:24;5.00;;;4.60;;
32365;SDS011;18837;46.832;16.838;2023-05-07T16:50:50;4.70;;;4.30;;
32365;SDS011;18837;46.832;16.838;2023-05-07T16:53:16;4.30;;;4.00;;
32365;SDS011;18837;46.832;16.838;2023-05-07T16:55:42;4.70;;;4.30;;
32365;SDS011;18837;46.832;16.838;2023-05-07T16:58:23;4.70;;;4.30;;
32365;SDS011;18837;46.832;16.838;2023-05-07T17:00:49;4.57;;;4.20;;
32365;SDS011;18837;46.832;16.838;2023-05-07T17:03:15;4.53;;;4.23;;
32365;SDS011;18837;46.832;16.838;2023-05-07T17:05:42;4.50;;;4.10;;
32365;SDS011;18837;46.832;16.838;2023-05-07T17:08:08;4.23;;;3.87;;
32365;SDS011;18837;46.832;16.838;2023-05-07T17:10:34;4.43;;;4.10;;
32365;SDS011;18837;46.832;16.838;2023-05-07T17:19:06;4.70;;;4.30;;
32365;SDS011;18837;46.832;16.838;2023-05-07T17:21:32;5.20;;;4.70;;
32365;SDS011;18837;46.832;16.838;2023-05-07T17:23:58;6.43;;;5.07;;